createdAt,value
2023-03-18T00:00:16.574Z,16.41
2023-03-18T00:02:45.343Z,16.44
2023-03-18T00:05:14.643Z,16.43
2023-03-18T00:07:43.207Z,16.44
2023-03-18T00:10:12.932Z,16.40
2023-03-18T00:12:43.255Z,16.38
2023-03-18T00:15:13.827Z,16.36
2023-03-18T00:17:42.442Z,16.32
2023-03-18T00:20:13.137Z,16.26
2023-03-18T00:22:42.487Z,16.22
2023-03-18T00:25:13.310Z,16.16
2023-03-18T00:27:43.026Z,16.13
2023-03-18T00:30:12.748Z,16.12
2023-03-18T00:32:41.582Z,16.12
2023-03-18T00:35:10.898Z,16.09
2023-03-18T00:37:39.992Z,16.12
2023-03-18T00:40:17.259Z,16.14
2023-03-18T00:42:50.722Z,16.16
2023-03-18T00:45:19.030Z,16.17
2023-03-18T00:47:48.606Z,16.21
2023-03-18T00:50:17.145Z,16.26
2023-03-18T00:52:45.370Z,16.26
2023-03-18T00:55:14.202Z,16.27
2023-03-18T00:57:42.416Z,16.31
2023-03-18T01:00:17.076Z,16.33
2023-03-18T01:02:45.632Z,16.30
2023-03-18T01:05:14.339Z,16.32
2023-03-18T01:07:42.707Z,16.30
2023-03-18T01:10:13.085Z,16.27
2023-03-18T01:12:41.753Z,16.30
2023-03-18T01:15:13.577Z,16.28
2023-03-18T01:17:42.752Z,16.28
2023-03-18T01:20:13.005Z,16.27
2023-03-18T01:22:42.382Z,16.23
2023-03-18T01:25:11.791Z,16.27
2023-03-18T01:27:40.761Z,16.27
2023-03-18T01:30:10.777Z,16.29
2023-03-18T01:32:40.353Z,16.28
2023-03-18T01:35:09.506Z,16.29
2023-03-18T01:37:37.805Z,16.29
2023-03-18T01:40:08.341Z,16.30
2023-03-18T01:42:37.188Z,16.32
2023-03-18T01:45:16.216Z,16.32
2023-03-18T01:47:46.642Z,16.38
2023-03-18T01:50:18.675Z,16.36
2023-03-18T01:52:49.143Z,16.38
2023-03-18T01:55:20.449Z,16.37
2023-03-18T01:57:50.560Z,16.40
2023-03-18T02:00:21.665Z,16.38
2023-03-18T02:02:54.073Z,16.42
2023-03-18T02:07:52.727Z,16.40
2023-03-18T02:10:24.028Z,16.41
2023-03-18T02:12:58.288Z,16.39
2023-03-18T02:15:28.153Z,16.39
2023-03-18T02:18:05.295Z,16.37
2023-03-18T02:20:46.009Z,16.41
2023-03-18T02:23:37.884Z,16.42
2023-03-18T02:26:14.779Z,16.39
2023-03-18T02:28:45.493Z,16.41
2023-03-18T02:31:18.218Z,16.40
2023-03-18T02:33:48.467Z,16.39
2023-03-18T02:36:20.654Z,16.41
2023-03-18T02:38:49.202Z,16.37
2023-03-18T02:41:18.469Z,16.41
2023-03-18T02:43:49.172Z,16.41
2023-03-18T02:46:31.320Z,16.40
2023-03-18T02:49:01.598Z,16.39
2023-03-18T02:51:30.725Z,16.43
2023-03-18T02:54:04.271Z,16.42
2023-03-18T02:56:32.802Z,16.44
2023-03-18T02:59:02.566Z,16.45
2023-03-18T03:01:30.668Z,16.41
2023-03-18T03:03:58.767Z,16.42
2023-03-18T03:06:26.990Z,16.41
2023-03-18T03:08:55.557Z,16.40
2023-03-18T03:11:24.231Z,16.41
2023-03-18T03:13:52.197Z,16.36
2023-03-18T03:16:22.868Z,16.34
2023-03-18T03:18:51.596Z,16.36
2023-03-18T03:21:19.741Z,16.34
2023-03-18T03:23:49.449Z,16.34
2023-03-18T03:26:18.283Z,16.31
2023-03-18T03:28:46.595Z,16.31
2023-03-18T03:31:15.182Z,16.28
2023-03-18T03:33:45.652Z,16.28
2023-03-18T03:36:16.560Z,16.29
2023-03-18T03:38:45.095Z,16.23
2023-03-18T03:41:15.952Z,16.21
2023-03-18T03:43:45.388Z,16.23
2023-03-18T03:46:13.616Z,16.23
2023-03-18T03:48:41.702Z,16.25
2023-03-18T03:51:11.173Z,16.24
2023-03-18T03:53:40.934Z,16.23
2023-03-18T03:56:11.580Z,16.25
2023-03-18T03:58:39.609Z,16.26
2023-03-18T04:01:08.802Z,16.27
2023-03-18T04:03:36.810Z,16.26
2023-03-18T04:06:05.015Z,16.28
2023-03-18T04:08:34.689Z,16.31
2023-03-18T04:11:04.678Z,16.30
2023-03-18T04:13:33.368Z,16.32
2023-03-18T04:16:01.825Z,16.34
2023-03-18T04:18:29.821Z,16.37
2023-03-18T04:20:57.846Z,16.39
2023-03-18T04:23:25.809Z,16.41
2023-03-18T04:25:55.172Z,16.38
2023-03-18T04:28:23.465Z,16.41
2023-03-18T04:30:51.815Z,16.42
2023-03-18T04:33:22.616Z,16.45
2023-03-18T04:35:51.107Z,16.44
2023-03-18T04:38:19.515Z,16.45
2023-03-18T04:40:49.016Z,16.48
2023-03-18T04:43:18.506Z,16.46
2023-03-18T04:45:46.506Z,16.47
2023-03-18T04:48:14.529Z,16.50
2023-03-18T04:50:43.869Z,16.48
2023-03-18T04:53:12.160Z,16.51
2023-03-18T04:55:41.500Z,16.50
2023-03-18T04:58:09.463Z,16.49
2023-03-18T05:00:38.996Z,16.49
2023-03-18T05:03:07.462Z,16.47
2023-03-18T05:05:38.439Z,16.49
2023-03-18T05:08:07.982Z,16.47
2023-03-18T05:10:36.393Z,16.47
2023-03-18T05:13:04.963Z,16.48
2023-03-18T05:15:33.322Z,16.49
2023-03-18T05:18:04.736Z,16.44
2023-03-18T05:20:32.969Z,16.44
2023-03-18T05:23:01.280Z,16.45
2023-03-18T05:25:29.402Z,16.45
2023-03-18T05:27:57.896Z,16.42
2023-03-18T05:30:26.154Z,16.47
2023-03-18T05:32:55.121Z,16.47
2023-03-18T05:35:24.783Z,16.47
2023-03-18T05:37:53.246Z,16.45
2023-03-18T05:40:21.890Z,16.44
2023-03-18T05:42:56.152Z,16.48
2023-03-18T05:45:25.534Z,16.47
2023-03-18T05:47:53.980Z,16.47
2023-03-18T05:50:31.672Z,16.46
2023-03-18T05:52:59.950Z,16.48
2023-03-18T05:55:30.354Z,16.48
2023-03-18T05:57:59.214Z,16.47
2023-03-18T06:00:28.828Z,16.47
2023-03-18T06:02:57.572Z,16.46
2023-03-18T06:05:26.322Z,16.49
2023-03-18T06:07:56.898Z,16.43
2023-03-18T06:10:26.681Z,16.41
2023-03-18T06:12:56.505Z,16.41
2023-03-18T06:15:25.832Z,16.39
2023-03-18T06:17:53.891Z,16.40
2023-03-18T06:20:23.632Z,16.39
2023-03-18T06:22:51.946Z,16.41
2023-03-18T06:25:22.808Z,16.43
2023-03-18T06:27:52.298Z,16.41
2023-03-18T06:30:20.756Z,16.39
2023-03-18T06:32:48.966Z,16.39
2023-03-18T06:35:17.430Z,16.40
2023-03-18T06:37:45.672Z,16.40
2023-03-18T06:40:14.968Z,16.37
2023-03-18T06:42:45.145Z,16.37
2023-03-18T06:45:13.714Z,16.35
2023-03-18T06:47:43.064Z,16.35
2023-03-18T06:50:13.830Z,16.37
2023-03-18T06:52:42.439Z,16.34
2023-03-18T06:55:11.556Z,16.35
2023-03-18T06:57:40.797Z,16.35
2023-03-18T07:00:12.201Z,16.35
2023-03-18T07:02:40.279Z,16.38
2023-03-18T07:05:09.288Z,16.37
2023-03-18T07:07:37.790Z,16.42
2023-03-18T07:10:06.616Z,16.42
2023-03-18T07:12:34.912Z,16.49
2023-03-18T07:15:04.084Z,16.52
2023-03-18T07:17:33.598Z,16.56
2023-03-18T07:20:01.673Z,16.64
2023-03-18T07:22:30.044Z,16.71
2023-03-18T07:24:58.158Z,16.83
2023-03-18T07:27:26.272Z,16.93
2023-03-18T07:29:54.395Z,17.03
2023-03-18T07:32:22.530Z,17.11
2023-03-18T07:34:52.060Z,17.19
2023-03-18T07:37:20.691Z,17.36
2023-03-18T07:39:48.935Z,17.46
2023-03-18T07:42:16.865Z,17.56
2023-03-18T07:44:44.836Z,17.61
2023-03-18T07:47:14.659Z,17.64
2023-03-18T07:49:42.886Z,17.62
2023-03-18T07:52:12.597Z,17.64
2023-03-18T07:54:40.530Z,17.60
2023-03-18T07:57:08.547Z,17.57
2023-03-18T07:59:37.597Z,17.60
2023-03-18T08:02:08.261Z,17.59
2023-03-18T08:04:37.767Z,17.51
2023-03-18T08:07:06.704Z,17.47
2023-03-18T08:09:36.734Z,17.44
2023-03-18T08:12:04.928Z,17.40
2023-03-18T08:14:33.164Z,17.32
2023-03-18T08:17:03.735Z,17.31
2023-03-18T08:19:32.067Z,17.30
2023-03-18T08:22:00.810Z,17.30
2023-03-18T08:24:29.076Z,17.29
2023-03-18T08:26:59.066Z,17.24
2023-03-18T08:29:27.243Z,17.24
2023-03-18T08:31:55.510Z,17.21
2023-03-18T08:34:23.790Z,17.19
2023-03-18T08:36:52.387Z,17.19
2023-03-18T08:39:21.181Z,17.19
2023-03-18T08:41:49.294Z,17.13
2023-03-18T08:44:18.736Z,17.20
2023-03-18T08:46:46.850Z,17.25
2023-03-18T08:49:15.647Z,17.30
2023-03-18T08:51:45.036Z,17.39
2023-03-18T08:54:13.705Z,17.46
2023-03-18T08:56:41.780Z,17.54
2023-03-18T08:59:10.129Z,17.58
2023-03-18T09:01:40.508Z,17.60
2023-03-18T09:04:09.941Z,17.61
2023-03-18T09:06:38.051Z,17.63
2023-03-18T09:09:06.027Z,17.60
2023-03-18T09:11:33.971Z,17.60
2023-03-18T09:14:02.121Z,17.55
2023-03-18T09:16:30.156Z,17.43
2023-03-18T09:18:59.866Z,17.33
2023-03-18T09:21:28.516Z,17.27
2023-03-18T09:23:56.656Z,17.26
2023-03-18T09:26:24.879Z,17.16
2023-03-18T09:28:53.279Z,17.13
2023-03-18T09:31:21.380Z,17.12
2023-03-18T09:33:49.520Z,17.16
2023-03-18T09:36:19.406Z,17.32
2023-03-18T09:38:47.354Z,17.42
2023-03-18T09:41:31.120Z,17.46
2023-03-18T09:44:13.006Z,17.49
2023-03-18T09:46:54.904Z,17.54
2023-03-18T09:49:50.165Z,17.48
2023-03-18T09:52:26.497Z,17.46
2023-03-18T09:55:02.739Z,17.44
2023-03-18T09:57:34.980Z,17.37
2023-03-18T10:00:09.270Z,17.35
2023-03-18T10:02:41.900Z,17.35
2023-03-18T10:05:16.845Z,17.32
2023-03-18T10:07:51.823Z,17.16
2023-03-18T10:10:25.706Z,17.12
2023-03-18T10:13:03.540Z,17.12
2023-03-18T10:15:36.023Z,17.11
2023-03-18T10:18:11.043Z,17.27
2023-03-18T10:20:56.630Z,17.28
2023-03-18T10:23:40.213Z,17.29
2023-03-18T10:26:22.094Z,17.26
2023-03-18T10:29:10.747Z,17.13
2023-03-18T10:34:48.889Z,17.28
2023-03-18T10:37:42.359Z,17.40
2023-03-18T10:40:20.328Z,17.47
2023-03-18T10:42:54.642Z,17.42
2023-03-18T10:45:26.308Z,17.33
2023-03-18T10:48:06.113Z,17.19
2023-03-18T10:50:38.635Z,17.06
2023-03-18T10:53:19.938Z,17.05
2023-03-18T10:56:01.262Z,17.19
2023-03-18T10:58:31.479Z,17.24
2023-03-18T11:01:10.534Z,17.24
2023-03-18T11:03:49.504Z,17.24
2023-03-18T11:06:31.536Z,17.32
2023-03-18T11:30:53.692Z,17.69
2023-03-18T11:33:27.135Z,17.65
2023-03-18T11:35:56.976Z,17.67
2023-03-18T11:38:29.563Z,17.61
2023-03-18T11:41:09.398Z,17.53
2023-03-18T11:43:42.199Z,17.54
2023-03-18T11:46:13.660Z,17.49
2023-03-18T11:48:44.656Z,17.60
2023-03-18T11:54:49.358Z,17.64
2023-03-18T11:57:26.717Z,17.80
2023-03-18T12:00:17.833Z,17.96
2023-03-18T12:03:24.765Z,18.07
2023-03-18T12:06:07.289Z,18.12
2023-03-18T12:08:48.269Z,18.16
2023-03-18T12:11:25.483Z,18.19
2023-03-18T12:14:05.764Z,18.22
2023-03-18T12:16:45.510Z,18.22
2023-03-18T12:19:45.178Z,18.27
2023-03-18T12:22:43.043Z,18.43
2023-03-18T12:25:40.366Z,18.55
2023-03-18T12:28:31.310Z,18.44
2023-03-18T12:31:33.719Z,18.27
2023-03-18T12:34:08.472Z,18.27
2023-03-18T12:37:06.525Z,18.25
2023-03-18T12:40:01.171Z,18.07
2023-03-18T12:42:51.188Z,18.04
2023-03-18T12:45:28.423Z,17.96
2023-03-18T13:06:16.853Z,17.61
2023-03-18T13:09:28.024Z,17.48
2023-03-18T13:12:03.876Z,17.29
2023-03-18T13:14:45.070Z,17.12
2023-03-18T13:17:27.001Z,17.04
2023-03-18T13:20:04.882Z,16.96
2023-03-18T13:23:06.618Z,16.93
2023-03-18T13:25:59.669Z,17.04
2023-03-18T13:29:16.297Z,17.15
2023-03-18T13:31:56.977Z,17.22
2023-03-18T13:34:50.627Z,17.15
2023-03-18T13:37:36.157Z,17.11
2023-03-18T13:40:23.782Z,17.08
2023-03-18T13:43:00.378Z,17.03
2023-03-18T13:45:32.956Z,17.04
2023-03-18T13:48:10.375Z,17.15
2023-03-18T13:50:42.813Z,17.30
2023-03-18T13:53:26.648Z,17.45
2023-03-18T13:56:12.491Z,17.73
2023-03-18T13:58:55.845Z,18.07
2023-03-18T14:01:40.333Z,18.44
2023-03-18T14:04:32.953Z,18.83
2023-03-18T14:07:20.378Z,19.07
2023-03-18T14:09:54.175Z,19.58
2023-03-18T14:12:39.848Z,19.73
2023-03-18T14:15:49.865Z,19.91
2023-03-18T14:18:28.028Z,19.91
2023-03-18T14:21:01.871Z,19.84
2023-03-18T14:23:55.672Z,19.74
2023-03-18T14:27:12.705Z,19.50
2023-03-18T14:30:08.402Z,19.35
2023-03-18T14:32:51.640Z,19.22
2023-03-18T14:41:33.832Z,18.58
2023-03-18T14:44:15.668Z,18.51
2023-03-18T14:46:53.416Z,18.38
2023-03-18T14:50:09.482Z,18.25
2023-03-18T14:52:41.511Z,18.25
2023-03-18T14:55:24.831Z,18.22
2023-03-18T14:57:53.702Z,18.11
2023-03-18T15:03:46.942Z,18.14
2023-03-18T15:06:24.690Z,18.27
2023-03-18T15:09:12.582Z,18.38
2023-03-18T15:12:00.991Z,18.40
2023-03-18T15:14:32.641Z,18.43
2023-03-18T15:17:06.992Z,18.43
2023-03-18T15:19:42.503Z,18.51
2023-03-18T15:22:29.552Z,18.51
2023-03-18T15:25:03.704Z,18.52
2023-03-18T15:27:35.200Z,18.55
2023-03-18T15:30:10.868Z,18.61
2023-03-18T15:32:52.280Z,18.62
2023-03-18T15:35:39.085Z,18.46
2023-03-18T15:38:20.082Z,18.26
2023-03-18T15:40:55.290Z,18.12
2023-03-18T15:43:42.814Z,18.08
2023-03-18T15:46:20.276Z,17.98
2023-03-18T15:51:59.028Z,18.01
2023-03-18T15:54:31.080Z,18.09
2023-03-18T15:57:21.757Z,18.04
2023-03-18T15:59:54.568Z,17.91
2023-03-18T16:02:26.533Z,17.73
2023-03-18T16:08:19.401Z,17.47
2023-03-18T16:10:51.802Z,17.35
2023-03-18T16:13:26.779Z,17.27
2023-03-18T16:16:02.061Z,17.19
2023-03-18T16:18:32.793Z,17.05
2023-03-18T16:21:18.842Z,16.91
2023-03-18T16:24:03.822Z,16.68
2023-03-18T16:29:51.933Z,16.33
2023-03-18T16:32:37.017Z,16.23
2023-03-18T16:35:15.512Z,16.14
2023-03-18T16:37:47.380Z,16.11
2023-03-18T16:40:37.952Z,15.92
2023-03-18T16:43:59.629Z,15.82
2023-03-18T16:46:31.332Z,15.74
2023-03-18T16:49:03.211Z,15.64
2023-03-18T16:51:43.146Z,15.58
2023-03-18T16:54:45.964Z,15.62
2023-03-18T16:57:20.418Z,15.65
2023-03-18T16:59:56.813Z,15.68
2023-03-18T17:02:36.516Z,15.67
2023-03-18T17:05:24.215Z,15.68
2023-03-18T17:07:55.837Z,15.73
2023-03-18T17:22:07.111Z,15.51
2023-03-18T17:30:54.148Z,15.48
2023-03-18T17:33:27.464Z,15.46
2023-03-18T17:35:57.602Z,15.48
2023-03-18T17:38:26.352Z,15.48
2023-03-18T17:40:56.328Z,15.45
2023-03-18T17:43:29.289Z,15.32
2023-03-18T17:46:10.832Z,15.26
2023-03-18T17:48:52.818Z,15.23
2023-03-18T17:51:25.694Z,15.20
2023-03-18T17:53:59.293Z,15.24
2023-03-18T17:56:28.392Z,15.15
2023-03-18T17:59:08.445Z,15.12
2023-03-18T18:01:43.709Z,15.13
2023-03-18T18:04:16.828Z,15.12
2023-03-18T18:06:49.449Z,15.15
2023-03-18T18:09:19.554Z,15.16
2023-03-18T18:11:51.272Z,15.20
2023-03-18T18:14:23.526Z,15.22
2023-03-18T18:16:56.449Z,15.26
2023-03-18T18:19:27.602Z,15.27
2023-03-18T18:21:57.580Z,15.27
2023-03-18T18:24:33.871Z,15.29
2023-03-18T18:27:04.688Z,15.30
2023-03-18T18:29:35.254Z,15.30
2023-03-18T18:32:05.702Z,15.30
2023-03-18T18:34:37.296Z,15.28
2023-03-18T18:37:07.645Z,15.28
2023-03-18T18:39:37.188Z,15.25
2023-03-18T18:42:07.879Z,15.18
2023-03-18T18:44:36.457Z,15.12
2023-03-18T18:47:19.145Z,15.03
2023-03-18T18:49:47.970Z,14.98
2023-03-18T18:52:16.154Z,14.91
2023-03-18T18:54:46.407Z,14.87
2023-03-18T18:57:26.892Z,14.84
2023-03-18T18:59:55.318Z,14.82
2023-03-18T19:02:31.743Z,14.88
2023-03-18T19:05:02.440Z,14.75
2023-03-18T19:07:30.730Z,14.72
2023-03-18T19:09:59.004Z,14.70
2023-03-18T19:12:27.759Z,14.63
2023-03-18T19:14:56.000Z,14.59
2023-03-18T19:17:24.378Z,14.51
2023-03-18T19:19:54.770Z,14.50
2023-03-18T19:22:23.055Z,14.44
2023-03-18T19:24:51.345Z,14.40
2023-03-18T19:27:24.568Z,14.38
2023-03-18T19:29:54.460Z,14.34
2023-03-18T19:32:24.254Z,14.32
2023-03-18T19:34:56.290Z,14.28
2023-03-18T19:37:27.380Z,14.28
2023-03-18T19:39:56.056Z,14.20
2023-03-18T19:42:24.351Z,14.24
2023-03-18T19:44:52.781Z,14.21
2023-03-18T19:47:24.757Z,14.20
2023-03-18T19:49:55.644Z,14.20
2023-03-18T19:52:25.733Z,14.19
2023-03-18T19:54:54.753Z,14.19
2023-03-18T19:57:26.098Z,14.17
2023-03-18T19:59:56.463Z,14.15
2023-03-18T20:02:26.003Z,14.16
2023-03-18T20:04:57.700Z,14.19
2023-03-18T20:07:27.671Z,14.17
2023-03-18T20:09:56.154Z,14.17
2023-03-18T20:12:26.825Z,14.15
2023-03-18T20:14:54.993Z,14.13
2023-03-18T20:17:37.586Z,14.12
2023-03-18T20:20:14.612Z,14.10
2023-03-18T20:22:46.280Z,14.05
2023-03-18T20:25:22.793Z,14.04
2023-03-18T20:27:53.663Z,14.02
2023-03-18T20:30:27.833Z,14.01
2023-03-18T20:32:56.310Z,13.95
2023-03-18T20:35:30.354Z,14.00
2023-03-18T20:38:01.201Z,13.95
2023-03-18T20:40:31.320Z,13.98
2023-03-18T20:42:59.829Z,13.95
2023-03-18T20:45:29.285Z,13.97
2023-03-18T20:47:58.103Z,13.96
2023-03-18T20:50:29.896Z,13.97
2023-03-18T20:52:58.788Z,13.97
2023-03-18T20:55:29.309Z,13.96
2023-03-18T20:57:57.571Z,13.99
2023-03-18T21:00:27.565Z,13.97
2023-03-18T21:02:58.105Z,13.98
2023-03-18T21:05:28.642Z,14.00
2023-03-18T21:07:57.105Z,14.03
2023-03-18T21:10:28.520Z,14.04
2023-03-18T21:12:56.828Z,14.02
2023-03-18T21:15:27.286Z,14.01
2023-03-18T21:17:59.910Z,13.99
2023-03-18T21:20:31.624Z,13.95
2023-03-18T21:22:59.770Z,13.95
2023-03-18T21:25:29.714Z,13.88
2023-03-18T21:27:58.129Z,13.85
2023-03-18T21:30:26.198Z,13.83
2023-03-18T21:32:54.221Z,13.74
2023-03-18T21:35:24.525Z,13.75
2023-03-18T21:37:54.370Z,13.72
2023-03-18T21:40:24.328Z,13.71
2023-03-18T21:42:53.207Z,13.74
2023-03-18T21:45:24.317Z,13.69
2023-03-18T21:47:53.615Z,13.69
2023-03-18T21:50:24.247Z,13.67
2023-03-18T21:52:54.445Z,13.65
2023-03-18T21:55:23.321Z,13.62
2023-03-18T21:57:53.127Z,13.62
2023-03-18T22:00:22.640Z,13.57
2023-03-18T22:02:51.241Z,13.54
2023-03-18T22:05:22.192Z,13.52
2023-03-18T22:07:51.077Z,13.53
2023-03-18T22:10:24.896Z,13.52
2023-03-18T22:12:53.388Z,13.47
2023-03-18T22:15:35.969Z,13.51
2023-03-18T22:18:04.968Z,13.54
2023-03-18T22:20:35.478Z,13.54
2023-03-18T22:23:11.945Z,13.57
2023-03-18T22:25:42.369Z,13.62
2023-03-18T22:28:12.862Z,13.67
2023-03-18T22:30:43.749Z,13.72
2023-03-18T22:33:23.462Z,13.71
2023-03-18T22:35:52.173Z,13.71
2023-03-18T22:38:22.987Z,13.71
2023-03-18T22:41:11.863Z,13.69
2023-03-18T22:43:40.143Z,13.68
2023-03-18T22:48:58.548Z,13.52
2023-03-18T22:51:32.236Z,13.46
2023-03-18T22:54:01.907Z,13.42
2023-03-18T22:56:45.680Z,13.34
2023-03-18T22:59:14.906Z,13.27
2023-03-18T23:01:48.195Z,13.19
2023-03-18T23:04:19.715Z,13.16
2023-03-18T23:06:49.517Z,13.11
2023-03-18T23:12:41.458Z,13.02
2023-03-18T23:15:42.465Z,12.98
2023-03-18T23:21:27.318Z,12.94
2023-03-18T23:32:30.802Z,12.73
2023-03-18T23:34:59.493Z,12.69
2023-03-18T23:37:27.952Z,12.65
2023-03-18T23:39:58.560Z,12.62
2023-03-18T23:42:27.342Z,12.59
2023-03-18T23:45:02.672Z,12.57
2023-03-18T23:47:32.901Z,12.59
2023-03-18T23:50:02.797Z,12.55
2023-03-18T23:52:33.040Z,12.55
2023-03-18T23:55:04.089Z,12.55
2023-03-18T23:57:32.853Z,12.55
